Time;durP1;ratioP1;P1;durP2;ratioP2;P2;SDS_P1;SDS_P2;PMS_P1;PMS_P2;Temp;Humidity;BMP_temperature;BMP_pressure;BME280_temperature;BME280_humidity;BME280_pressure;Samples;Min_cycle;Max_cycle;Signal;HPM_P1;HPM_P2
2023/06/12 00:00:28;;;;;;;0.30;0.30;;;24.80;57.50;;;;;;6129999;29;20059;-50
2023/06/12 00:03:30;;;;;;;0.30;0.25;;;25.00;57.80;;;;;;6129509;29;20040;-46
2023/06/12 00:06:33;;;;;;;0.45;0.40;;;24.80;57.50;;;;;;6123909;29;20048;-49
2023/06/12 00:09:34;;;;;;;0.30;0.30;;;24.70;57.40;;;;;;6123171;29;20056;-46
2023/06/12 00:12:36;;;;;;;0.25;0.20;;;24.80;57.60;;;;;;6129596;28;20055;-48
2023/06/12 00:15:37;;;;;;;0.35;0.35;;;24.90;57.80;;;;;;6128999;29;20035;-46
2023/06/12 00:18:40;;;;;;;0.45;0.30;;;24.80;57.50;;;;;;6129759;28;20072;-46
2023/06/12 00:21:42;;;;;;;0.30;0.30;;;24.80;57.50;;;;;;6128890;29;20040;-44
2023/06/12 00:24:44;;;;;;;0.28;0.28;;;24.80;57.60;;;;;;6131273;28;20052;-48
2023/06/12 00:27:45;;;;;;;0.32;0.32;;;24.80;57.70;;;;;;6128306;29;20032;-45
2023/06/12 00:30:47;;;;;;;0.30;0.30;;;24.90;57.80;;;;;;6126585;29;20048;-47
2023/06/12 00:33:52;;;;;;;0.20;0.20;;;24.10;57.40;;;;;;6128225;29;20080;-47
2023/06/12 00:36:54;;;;;;;0.40;0.30;;;24.90;57.70;;;;;;6127049;29;20036;-48
2023/06/12 00:39:56;;;;;;;0.30;0.30;;;24.70;57.90;;;;;;6130408;28;20055;-49
2023/06/12 00:42:57;;;;;;;0.30;0.30;;;24.90;57.90;;;;;;6126245;29;20040;-48
2023/06/12 00:45:59;;;;;;;0.30;0.28;;;24.70;57.90;;;;;;6128614;28;20048;-45
2023/06/12 00:49:02;;;;;;;0.20;0.20;;;24.80;57.70;;;;;;6128824;29;20033;-47
2023/06/12 00:52:05;;;;;;;0.20;0.20;;;24.80;58.00;;;;;;6128613;29;20048;-46
2023/06/12 00:55:08;;;;;;;0.20;0.20;;;24.90;57.80;;;;;;6129065;29;20056;-44
2023/06/12 00:58:09;;;;;;;0.30;0.30;;;24.70;57.80;;;;;;6128902;29;20080;-49
2023/06/12 01:01:14;;;;;;;0.38;0.38;;;24.80;57.70;;;;;;6132288;29;20065;-45
2023/06/12 01:04:16;;;;;;;0.40;0.40;;;24.70;58.00;;;;;;6131964;29;20054;-46
2023/06/12 01:07:29;;;;;;;0.35;0.30;;;24.90;57.90;;;;;;6120984;29;20036;-52
2023/06/12 01:10:37;;;;;;;0.28;0.22;;;24.80;57.80;;;;;;6103431;29;20666;-49
2023/06/12 01:13:39;;;;;;;0.20;0.20;;;24.90;57.90;;;;;;6102836;29;20044;-50
2023/06/12 01:16:41;;;;;;;0.32;0.32;;;24.50;57.80;;;;;;6103272;29;20047;-50
2023/06/12 01:19:43;;;;;;;0.28;0.28;;;24.80;57.90;;;;;;6100730;29;20499;-48
2023/06/12 01:22:56;;;;;;;0.30;0.30;;;24.60;57.80;;;;;;6102794;29;20036;-50
2023/06/12 01:26:33;;;;;;;0.30;0.30;;;24.40;57.60;;;;;;6101929;29;20084;-47
2023/06/12 01:29:52;;;;;;;0.40;0.40;;;24.90;57.90;;;;;;6103282;29;20040;-45
2023/06/12 01:33:02;;;;;;;0.40;0.40;;;24.30;57.60;;;;;;6102616;29;20115;-51
2023/06/12 01:36:14;;;;;;;0.30;0.30;;;24.60;58.40;;;;;;6102989;29;20064;-48
2023/06/12 01:39:18;;;;;;;0.30;0.30;;;24.80;57.90;;;;;;6102840;29;20051;-52
2023/06/12 01:42:20;;;;;;;0.20;0.20;;;24.80;58.00;;;;;;6102613;29;20506;-51
2023/06/12 01:45:22;;;;;;;0.30;0.30;;;24.70;58.30;;;;;;6102763;29;20052;-47
2023/06/12 01:48:24;;;;;;;0.30;0.30;;;24.80;58.50;;;;;;6101241;29;20551;-49
2023/06/12 01:51:28;;;;;;;0.63;0.30;;;24.70;58.10;;;;;;6101196;29;20040;-51
2023/06/12 01:54:29;;;;;;;0.45;0.30;;;24.90;58.40;;;;;;6101728;29;20036;-52
2023/06/12 01:57:32;;;;;;;0.38;0.38;;;24.70;58.10;;;;;;6102187;29;20689;-50
2023/06/12 02:00:35;;;;;;;0.40;0.30;;;24.70;58.30;;;;;;6102458;29;20040;-49
2023/06/12 02:03:45;;;;;;;0.30;0.30;;;24.60;58.00;;;;;;6100913;29;20047;-46
2023/06/12 02:06:48;;;;;;;0.45;0.30;;;24.80;58.40;;;;;;6101004;29;20078;-52
2023/06/12 02:09:50;;;;;;;0.30;0.30;;;24.60;57.90;;;;;;6101809;29;20045;-49
2023/06/12 02:12:51;;;;;;;0.30;0.30;;;24.30;58.10;;;;;;6100066;29;20040;-46
2023/06/12 02:15:53;;;;;;;0.30;0.30;;;24.80;58.30;;;;;;6101577;29;20036;-52
2023/06/12 02:18:55;;;;;;;0.40;0.35;;;24.60;58.40;;;;;;6101906;29;20055;-46
2023/06/12 02:21:58;;;;;;;0.30;0.30;;;24.70;58.30;;;;;;6101624;29;20456;-48
2023/06/12 02:24:59;;;;;;;0.30;0.30;;;24.60;58.20;;;;;;6100309;29;20127;-50
2023/06/12 02:28:02;;;;;;;0.30;0.30;;;24.70;58.40;;;;;;6101434;29;20036;-48
2023/06/12 02:31:04;;;;;;;0.73;0.30;;;24.30;58.30;;;;;;6102063;29;20044;-48
2023/06/12 02:34:09;;;;;;;0.30;0.30;;;24.60;58.30;;;;;;6099511;29;20052;-49
2023/06/12 02:37:12;;;;;;;0.40;0.30;;;24.50;58.30;;;;;;6101520;29;20094;-49
2023/06/12 02:40:17;;;;;;;0.30;0.30;;;24.70;58.50;;;;;;6101132;29;20043;-48
2023/06/12 02:43:19;;;;;;;0.30;0.30;;;24.70;58.60;;;;;;6100911;29;20123;-46
2023/06/12 02:46:21;;;;;;;0.30;0.30;;;24.60;58.40;;;;;;6099049;29;20036;-48
2023/06/12 02:49:26;;;;;;;0.35;0.30;;;24.70;58.50;;;;;;6100998;29;20084;-47
2023/06/12 02:52:27;;;;;;;0.35;0.35;;;24.20;58.10;;;;;;6099973;29;20064;-45
2023/06/12 02:55:29;;;;;;;0.30;0.30;;;24.60;58.60;;;;;;6101609;29;20067;-48
2023/06/12 02:58:33;;;;;;;0.35;0.35;;;24.70;58.50;;;;;;6101184;29;20048;-46
2023/06/12 03:01:35;;;;;;;0.20;0.20;;;24.40;58.30;;;;;;6101376;29;20071;-50
2023/06/12 03:04:38;;;;;;;0.30;0.30;;;24.60;58.50;;;;;;6100992;29;20086;-47
2023/06/12 03:07:40;;;;;;;0.20;0.20;;;24.50;58.40;;;;;;6101074;29;20048;-49
2023/06/12 03:10:44;;;;;;;0.40;0.40;;;24.50;58.40;;;;;;6101008;29;20040;-50
2023/06/12 03:13:46;;;;;;;0.40;0.30;;;24.50;58.50;;;;;;6100403;29;20412;-49
2023/06/12 03:16:48;;;;;;;0.38;0.38;;;24.60;58.50;;;;;;6101117;29;20118;-49
2023/06/12 03:19:50;;;;;;;0.30;0.30;;;24.40;58.40;;;;;;6102607;29;20046;-47
2023/06/12 03:22:54;;;;;;;0.30;0.30;;;24.50;58.50;;;;;;6101172;29;20032;-49
2023/06/12 03:25:55;;;;;;;0.40;0.40;;;24.20;58.40;;;;;;6101015;29;20139;-50
2023/06/12 03:28:57;;;;;;;0.22;0.22;;;24.50;58.40;;;;;;6101003;29;20044;-47
2023/06/12 03:31:59;;;;;;;0.30;0.30;;;24.60;58.60;;;;;;6100478;29;20123;-49
2023/06/12 03:35:13;;;;;;;;;;;24.50;58.60;;;;;;6098704;29;20411;-50
2023/06/12 03:38:19;;;;;;;0.30;0.30;;;24.60;56.60;;;;;;6099903;29;19922;-50
2023/06/12 03:41:21;;;;;;;0.32;0.32;;;24.10;58.50;;;;;;6100473;29;20048;-48
2023/06/12 03:44:23;;;;;;;0.40;0.40;;;24.50;58.60;;;;;;6099307;29;20099;-49
2023/06/12 03:47:26;;;;;;;0.22;0.22;;;24.60;58.70;;;;;;6099612;29;20036;-51
2023/06/12 03:50:29;;;;;;;1.48;0.50;;;24.50;58.90;;;;;;6099323;29;20044;-53
2023/06/12 03:53:32;;;;;;;3.28;0.60;;;24.50;59.30;;;;;;6099168;29;20385;-55
2023/06/12 03:56:34;;;;;;;2.28;0.40;;;24.50;59.90;;;;;;6100706;29;20070;-55
2023/06/12 03:59:38;;;;;;;1.77;0.60;;;24.40;59.60;;;;;;6100342;29;20047;-55
2023/06/12 04:02:39;;;;;;;1.70;0.60;;;24.50;59.70;;;;;;6099836;29;20037;-53
2023/06/12 04:05:42;;;;;;;1.10;0.60;;;24.20;59.50;;;;;;6100165;29;20107;-54
2023/06/12 04:08:44;;;;;;;1.98;0.70;;;24.40;59.70;;;;;;6100396;29;20036;-53
2023/06/12 04:11:46;;;;;;;3.80;0.80;;;24.60;59.80;;;;;;6100202;29;20128;-54
2023/06/12 04:14:51;;;;;;;2.50;0.50;;;24.20;59.50;;;;;;6098128;29;20059;-54
2023/06/12 04:17:52;;;;;;;0.88;0.65;;;24.40;59.20;;;;;;6099480;29;20056;-54
2023/06/12 04:21:00;;;;;;;0.70;0.60;;;24.50;59.70;;;;;;6100238;29;20040;-54
2023/06/12 04:24:13;;;;;;;0.50;0.40;;;24.50;59.50;;;;;;6100544;29;20072;-51
2023/06/12 04:27:16;;;;;;;1.17;0.30;;;24.50;59.60;;;;;;6100287;29;20562;-52
2023/06/12 04:30:21;;;;;;;0.68;0.45;;;24.20;59.30;;;;;;6100262;29;20044;-53
2023/06/12 04:33:24;;;;;;;0.55;0.40;;;24.50;57.10;;;;;;6100075;29;20114;-53
2023/06/12 04:36:27;;;;;;;0.73;0.50;;;24.30;60.00;;;;;;6104084;29;20073;-54
2023/06/12 04:39:30;;;;;;;0.40;0.40;;;24.40;59.60;;;;;;6103279;29;20040;-54
2023/06/12 04:42:32;;;;;;;0.85;0.40;;;24.30;59.50;;;;;;6103294;29;20047;-54
2023/06/12 04:45:35;;;;;;;0.65;0.32;;;24.50;59.70;;;;;;6103836;29;20135;-50
2023/06/12 04:48:38;;;;;;;0.30;0.30;;;24.30;59.60;;;;;;6103665;29;20051;-54
2023/06/12 04:51:42;;;;;;;0.40;0.32;;;24.30;59.70;;;;;;6103787;29;20058;-53
2023/06/12 04:54:44;;;;;;;1.17;0.40;;;24.40;59.60;;;;;;6101754;29;20048;-50
2023/06/12 04:57:47;;;;;;;1.17;0.40;;;24.30;59.70;;;;;;6103062;29;20048;-53
2023/06/12 05:00:49;;;;;;;0.40;0.40;;;24.20;59.60;;;;;;6102379;29;20041;-52
2023/06/12 05:03:53;;;;;;;0.38;0.30;;;24.30;59.80;;;;;;6099942;29;20040;-53
2023/06/12 05:06:57;;;;;;;1.08;0.35;;;24.10;59.40;;;;;;6099449;29;20535;-52
2023/06/12 05:10:00;;;;;;;0.30;0.30;;;24.30;59.60;;;;;;6103193;29;20040;-51
2023/06/12 05:13:02;;;;;;;0.35;0.30;;;24.20;59.50;;;;;;6102042;29;20453;-52
2023/06/12 05:16:04;;;;;;;0.32;0.30;;;24.10;59.40;;;;;;6100795;29;20040;-54
2023/06/12 05:19:06;;;;;;;0.30;0.30;;;24.20;59.50;;;;;;6102520;29;20047;-52
2023/06/12 05:22:08;;;;;;;0.30;0.30;;;24.30;59.60;;;;;;6105059;29;20031;-51
2023/06/12 05:25:10;;;;;;;0.95;0.40;;;24.40;59.60;;;;;;6101036;29;20412;-52
2023/06/12 05:28:15;;;;;;;0.20;0.20;;;24.30;59.70;;;;;;6102366;29;20650;-54
2023/06/12 05:31:16;;;;;;;0.30;0.30;;;24.00;59.50;;;;;;6102176;29;20063;-54
2023/06/12 05:34:19;;;;;;;0.40;0.30;;;24.00;59.50;;;;;;6084645;29;20471;-51
2023/06/12 05:37:21;;;;;;;0.30;0.30;;;24.30;59.60;;;;;;6101944;29;20044;-54
2023/06/12 05:40:23;;;;;;;0.20;0.20;;;24.50;59.80;;;;;;6101511;29;20070;-53
2023/06/12 05:43:25;;;;;;;0.40;0.30;;;24.30;59.80;;;;;;6100494;29;20134;-53
2023/06/12 05:46:28;;;;;;;0.30;0.25;;;24.40;59.80;;;;;;6097208;29;20043;-53
2023/06/12 05:49:30;;;;;;;0.20;0.20;;;24.30;59.70;;;;;;6100369;29;20056;-54
2023/06/12 05:52:32;;;;;;;0.30;0.30;;;24.40;60.60;;;;;;6096499;29;20040;-53
2023/06/12 05:55:42;;;;;;;0.20;0.20;;;24.20;59.40;;;;;;6095208;29;20063;-51
2023/06/12 05:58:43;;;;;;;0.35;0.35;;;24.30;60.00;;;;;;6094710;29;20051;-51
2023/06/12 06:01:45;;;;;;;0.30;0.30;;;24.20;59.70;;;;;;6092158;29;20041;-53
2023/06/12 06:04:47;;;;;;;0.40;0.40;;;24.40;59.90;;;;;;6071640;29;20067;-52
2023/06/12 06:07:50;;;;;;;0.40;0.30;;;24.00;59.50;;;;;;6096760;29;20067;-52
2023/06/12 06:10:52;;;;;;;0.20;0.20;;;24.00;59.60;;;;;;6095911;29;20103;-53
2023/06/12 06:13:55;;;;;;;0.28;0.20;;;24.00;59.70;;;;;;6094697;29;20043;-54
2023/06/12 06:16:57;;;;;;;0.43;0.43;;;24.20;59.80;;;;;;6097206;29;20040;-53
2023/06/12 06:20:05;;;;;;;0.40;0.40;;;24.20;59.80;;;;;;6096430;29;20412;-53
2023/06/12 06:23:07;;;;;;;0.20;0.20;;;24.00;59.60;;;;;;6096722;29;20044;-52
2023/06/12 06:26:10;;;;;;;1.33;0.20;;;24.40;59.80;;;;;;6096017;29;20571;-54
2023/06/12 06:29:11;;;;;;;0.40;0.20;;;24.30;60.40;;;;;;6096684;29;20193;-51
2023/06/12 06:32:17;;;;;;;0.20;0.20;;;24.20;59.90;;;;;;6096275;29;20040;-53
2023/06/12 06:35:22;;;;;;;0.20;0.20;;;24.30;60.00;;;;;;6093032;29;20551;-52
2023/06/12 06:38:25;;;;;;;0.28;0.28;;;24.10;57.40;;;;;;6094584;29;20072;-51
2023/06/12 06:41:26;;;;;;;0.28;0.22;;;24.20;60.00;;;;;;6094252;29;20044;-54
2023/06/12 06:44:28;;;;;;;0.40;0.40;;;24.00;59.90;;;;;;6093953;29;20071;-53
2023/06/12 06:47:31;;;;;;;1.20;0.82;;;24.20;60.10;;;;;;6091859;29;20052;-50
2023/06/12 06:50:33;;;;;;;1.00;0.20;;;24.60;60.00;;;;;;6089273;29;20044;-52
2023/06/12 06:53:36;;;;;;;1.38;0.38;;;24.20;60.10;;;;;;6085655;29;20119;-54
2023/06/12 06:56:38;;;;;;;0.50;0.40;;;24.30;60.10;;;;;;6087671;29;20032;-54
2023/06/12 06:59:41;;;;;;;0.30;0.30;;;23.30;59.70;;;;;;6079544;29;20064;-53
2023/06/12 07:02:45;;;;;;;0.30;0.30;;;24.30;60.10;;;;;;6075477;29;20083;-54
2023/06/12 07:05:51;;;;;;;0.80;0.30;;;24.30;60.30;;;;;;6079872;29;20529;-54
2023/06/12 07:08:54;;;;;;;0.10;0.10;;;23.90;60.00;;;;;;6066271;29;20071;-51
2023/06/12 07:11:56;;;;;;;0.68;0.40;;;24.30;60.20;;;;;;6079576;29;20078;-53
2023/06/12 07:14:58;;;;;;;2.15;0.50;;;24.40;59.90;;;;;;6282126;23;20051;-60
2023/06/12 07:18:02;;;;;;;1.42;0.50;;;24.50;60.10;;;;;;6076354;29;20070;-57
2023/06/12 07:21:04;;;;;;;0.60;0.30;;;24.30;60.10;;;;;;6068648;29;20040;-58
2023/06/12 07:24:06;;;;;;;0.40;0.32;;;24.40;60.50;;;;;;6082875;29;20044;-56
2023/06/12 07:27:11;;;;;;;2.92;0.30;;;24.20;60.40;;;;;;6092673;29;20020;-53
2023/06/12 07:30:16;;;;;;;2.17;0.30;;;24.10;61.10;;;;;;6081823;29;20044;-58
2023/06/12 07:40:34;;;;;;;0.80;0.50;;;24.50;59.00;;;;;;7224561;23;20036;-46
2023/06/12 07:43:38;;;;;;;1.05;0.50;;;24.50;61.00;;;;;;6130097;29;20044;-48
2023/06/12 07:46:42;;;;;;;1.02;0.55;;;25.10;61.30;;;;;;6130881;29;20020;-50
2023/06/12 07:49:44;;;;;;;0.70;0.50;;;24.50;60.80;;;;;;6112660;29;20028;-47
2023/06/12 07:52:46;;;;;;;2.45;0.40;;;24.60;60.60;;;;;;6126738;29;20027;-52
2023/06/12 07:55:50;;;;;;;0.60;0.50;;;24.60;60.80;;;;;;6096991;29;20386;-47
2023/06/12 07:59:06;;;;;;;0.60;0.45;;;24.60;60.50;;;;;;6078344;29;20036;-44
2023/06/12 08:02:07;;;;;;;0.50;0.50;;;24.70;60.50;;;;;;6068171;29;20051;-44
2023/06/12 08:05:10;;;;;;;0.82;0.45;;;24.80;60.50;;;;;;6085638;29;20316;-47
2023/06/12 08:08:12;;;;;;;1.48;0.60;;;24.70;60.30;;;;;;6084582;29;20045;-47
2023/06/12 08:11:17;;;;;;;0.70;0.50;;;24.60;59.90;;;;;;6087133;29;20752;-45
2023/06/12 08:14:22;;;;;;;1.75;0.40;;;25.00;60.00;;;;;;6097500;29;20118;-47
2023/06/12 08:17:24;;;;;;;1.00;0.57;;;24.70;59.70;;;;;;6103638;29;20051;-45
2023/06/12 08:20:27;;;;;;;0.88;0.77;;;24.80;60.00;;;;;;6105219;29;20036;-47
2023/06/12 08:23:30;;;;;;;1.15;0.50;;;24.50;59.60;;;;;;6085519;29;20048;-46
2023/06/12 08:26:36;;;;;;;0.40;0.40;;;24.90;59.80;;;;;;6101843;29;20029;-44
2023/06/12 08:29:39;;;;;;;0.60;0.60;;;24.90;59.60;;;;;;6103966;29;20037;-49
2023/06/12 08:32:41;;;;;;;2.03;0.60;;;24.90;59.50;;;;;;6105897;29;20108;-50
2023/06/12 08:35:46;;;;;;;0.50;0.50;;;24.90;59.20;;;;;;6106656;29;20056;-51
2023/06/12 08:38:48;;;;;;;1.05;0.70;;;25.00;59.40;;;;;;6103302;29;20096;-49
2023/06/12 08:42:02;;;;;;;1.35;0.60;;;24.90;59.30;;;;;;6098116;29;20032;-51
2023/06/12 08:45:04;;;;;;;0.63;0.60;;;24.80;59.10;;;;;;6084038;29;20028;-44
2023/06/12 08:48:26;;;;;;;0.80;0.73;;;23.90;58.60;;;;;;6090926;29;20041;-47
2023/06/12 08:51:30;;;;;;;2.63;0.75;;;25.00;59.00;;;;;;6086765;29;20043;-50
2023/06/12 08:54:33;;;;;;;0.70;0.60;;;25.70;59.40;;;;;;6086484;29;20025;-49
2023/06/12 08:57:36;;;;;;;0.90;0.60;;;25.10;58.90;;;;;;6091166;29;20028;-46
2023/06/12 09:00:38;;;;;;;1.35;0.80;;;25.00;58.70;;;;;;6091666;29;20056;-45
2023/06/12 09:03:47;;;;;;;1.08;0.98;;;25.00;59.00;;;;;;6089525;29;20039;-48
2023/06/12 09:06:51;;;;;;;1.90;0.80;;;25.00;58.70;;;;;;6103544;29;20028;-48
2023/06/12 09:09:53;;;;;;;1.63;0.80;;;24.70;58.50;;;;;;6103862;29;20044;-47
2023/06/12 09:13:09;;;;;;;1.17;0.77;;;25.40;58.90;;;;;;6100015;29;20040;-45
2023/06/12 09:16:12;;;;;;;0.88;0.70;;;24.90;58.40;;;;;;6082794;29;20028;-47
2023/06/12 09:19:14;;;;;;;1.35;0.80;;;25.10;58.50;;;;;;6058155;29;20108;-47
2023/06/12 09:22:16;;;;;;;4.68;2.65;;;25.00;58.40;;;;;;6089088;29;20044;-45
2023/06/12 09:25:17;;;;;;;5.78;3.70;;;25.30;58.50;;;;;;6102761;29;20058;-47
2023/06/12 09:28:24;;;;;;;7.20;4.75;;;25.00;58.00;;;;;;6084053;29;20092;-46
2023/06/12 09:31:26;;;;;;;6.75;5.40;;;24.90;57.70;;;;;;6092455;29;20096;-49
2023/06/12 09:34:27;;;;;;;9.63;6.53;;;25.10;57.80;;;;;;6095598;29;20116;-48
2023/06/12 09:37:31;;;;;;;7.38;6.60;;;25.10;57.70;;;;;;6101408;29;20149;-49
2023/06/12 09:40:38;;;;;;;9.18;7.00;;;25.00;57.40;;;;;;6100096;29;20153;-50
2023/06/12 09:43:41;;;;;;;9.30;7.20;;;25.20;57.60;;;;;;6101353;29;20044;-58
2023/06/12 09:46:43;;;;;;;9.25;7.97;;;25.00;57.40;;;;;;6079859;29;20414;-60
2023/06/12 09:49:47;;;;;;;8.70;7.78;;;25.10;57.60;;;;;;6052412;29;20079;-58
2023/06/12 09:52:49;;;;;;;8.82;7.80;;;25.00;57.60;;;;;;6060885;29;20037;-57
2023/06/12 09:55:51;;;;;;;8.73;6.97;;;24.80;57.40;;;;;;6071500;29;20044;-57
2023/06/12 09:58:55;;;;;;;7.95;6.32;;;24.80;57.70;;;;;;6068240;29;20052;-57
2023/06/12 10:02:03;;;;;;;7.10;5.78;;;25.00;57.80;;;;;;6050453;29;20057;-59
2023/06/12 10:05:11;;;;;;;7.50;6.50;;;25.20;58.20;;;;;;6064616;29;20060;-57
2023/06/12 10:08:16;;;;;;;8.70;5.95;;;25.00;57.90;;;;;;6066617;29;20113;-58
2023/06/12 10:11:18;;;;;;;8.10;5.88;;;25.10;57.70;;;;;;6083214;29;20041;-58
2023/06/12 10:14:26;;;;;;;7.05;5.43;;;24.90;58.10;;;;;;6068175;29;20047;-58
2023/06/12 10:17:29;;;;;;;7.20;4.95;;;24.90;58.00;;;;;;6092022;29;20101;-55
2023/06/12 10:20:34;;;;;;;7.45;4.72;;;24.70;57.70;;;;;;6093675;29;20129;-52
2023/06/12 10:23:36;;;;;;;6.63;4.28;;;24.90;57.90;;;;;;6087837;29;20229;-55
2023/06/12 10:26:39;;;;;;;4.80;3.70;;;25.00;57.90;;;;;;6047216;29;20048;-59
2023/06/12 10:29:42;;;;;;;5.93;3.80;;;25.00;57.80;;;;;;6033312;29;20044;-58
2023/06/12 10:32:46;;;;;;;7.88;4.13;;;25.00;57.80;;;;;;6032393;29;20047;-59
2023/06/12 10:35:49;;;;;;;5.47;3.25;;;24.50;57.80;;;;;;6034250;29;20130;-58
2023/06/12 10:39:02;;;;;;;5.85;3.80;;;24.90;58.40;;;;;;6018542;29;20061;-63
2023/06/12 10:42:06;;;;;;;;;;;24.70;58.30;;;;;;5964753;29;20037;-63
2023/06/12 10:45:16;;;;;;;6.25;3.80;;;25.00;58.50;;;;;;5988947;29;20671;-63
2023/06/12 10:48:19;;;;;;;4.20;2.97;;;24.80;58.30;;;;;;6031771;29;20045;-63
2023/06/12 10:51:35;;;;;;;4.25;2.55;;;24.70;57.70;;;;;;6045918;29;20779;-63
2023/06/12 10:54:37;;;;;;;3.15;2.83;;;24.90;56.20;;;;;;6023888;29;20134;-63
2023/06/12 10:57:38;;;;;;;5.57;2.50;;;24.90;57.80;;;;;;6058358;29;20044;-62
2023/06/12 11:00:45;;;;;;;3.00;2.70;;;24.60;57.60;;;;;;6057193;29;20118;-62
2023/06/12 11:03:50;;;;;;;2.40;2.20;;;25.10;57.80;;;;;;6040885;29;20069;-62
2023/06/12 11:06:52;;;;;;;1.98;1.80;;;24.80;57.50;;;;;;6047156;29;20032;-60
2023/06/12 11:09:53;;;;;;;2.22;1.70;;;24.90;57.60;;;;;;6043315;29;20972;-61
2023/06/12 11:12:56;;;;;;;2.00;1.50;;;25.10;58.00;;;;;;6058083;29;20045;-61
2023/06/12 11:15:58;;;;;;;1.65;1.55;;;25.00;57.80;;;;;;6031806;29;20040;-62
2023/06/12 11:19:04;;;;;;;2.10;1.90;;;25.20;58.30;;;;;;6024528;29;20724;-61
2023/06/12 11:22:06;;;;;;;1.80;1.65;;;25.30;58.20;;;;;;6033891;29;20044;-61
2023/06/12 11:25:08;;;;;;;1.60;1.50;;;25.20;58.20;;;;;;6050050;29;20044;-62
2023/06/12 11:28:12;;;;;;;2.88;1.58;;;25.20;58.20;;;;;;6049646;29;20509;-63
2023/06/12 11:31:14;;;;;;;1.65;1.10;;;25.20;58.20;;;;;;6045196;29;20116;-64
2023/06/12 11:34:16;;;;;;;2.45;1.73;;;23.80;57.40;;;;;;6063211;29;20044;-61
2023/06/12 11:37:21;;;;;;;1.30;1.20;;;25.20;58.40;;;;;;6062910;29;20076;-62
2023/06/12 11:40:28;;;;;;;1.13;1.02;;;24.60;58.10;;;;;;6040522;29;20048;-62
2023/06/12 11:43:30;;;;;;;1.50;1.30;;;25.20;58.50;;;;;;6082365;29;20044;-61
2023/06/12 11:46:37;;;;;;;1.58;1.10;;;25.00;58.50;;;;;;6070908;29;20315;-62
2023/06/12 11:49:42;;;;;;;0.87;0.80;;;25.30;56.80;;;;;;6065711;29;20058;-62
2023/06/12 11:52:45;;;;;;;4.70;1.90;;;25.30;58.50;;;;;;6055604;29;20037;-61
2023/06/12 11:56:00;;;;;;;2.03;1.50;;;25.30;58.90;;;;;;6069791;29;20040;-59
2023/06/12 11:59:05;;;;;;;2.88;2.10;;;25.30;58.80;;;;;;6290064;23;20063;-56
2023/06/12 12:02:08;;;;;;;2.58;2.00;;;24.70;58.60;;;;;;6122472;29;20046;-54
2023/06/12 12:05:11;;;;;;;2.15;1.83;;;25.30;58.70;;;;;;6120080;29;20044;-55
2023/06/12 12:08:13;;;;;;;3.47;1.65;;;25.30;58.70;;;;;;6104240;29;20048;-56
2023/06/12 12:11:16;;;;;;;1.83;1.48;;;25.40;58.70;;;;;;6110728;29;20051;-52
2023/06/12 12:14:23;;;;;;;2.83;2.10;;;25.30;58.80;;;;;;6107331;29;20036;-55
2023/06/12 12:17:31;;;;;;;2.38;2.00;;;25.10;58.80;;;;;;6094639;29;20036;-55
2023/06/12 12:20:35;;;;;;;4.33;1.93;;;25.10;58.90;;;;;;6119800;29;20048;-56
2023/06/12 12:23:37;;;;;;;2.58;1.70;;;25.20;59.10;;;;;;6115352;29;20056;-52
2023/06/12 12:26:41;;;;;;;1.92;1.70;;;25.40;59.40;;;;;;6114456;29;20087;-55
2023/06/12 12:29:43;;;;;;;2.15;1.80;;;25.60;59.40;;;;;;6110060;29;20051;-56
2023/06/12 12:33:01;;;;;;;5.60;2.40;;;25.40;59.50;;;;;;6099571;29;20042;-54
2023/06/12 12:36:03;;;;;;;5.05;2.45;;;25.30;59.30;;;;;;6091287;29;20042;-55
2023/06/12 12:39:06;;;;;;;4.13;2.40;;;25.30;59.50;;;;;;6102320;29;20036;-57
2023/06/12 12:42:07;;;;;;;2.67;2.17;;;25.30;59.10;;;;;;6113793;29;20047;-55
2023/06/12 12:45:10;;;;;;;2.92;2.28;;;25.20;59.50;;;;;;6110390;29;20205;-57
2023/06/12 12:48:12;;;;;;;2.65;1.83;;;24.80;59.10;;;;;;6075510;29;20052;-57
2023/06/12 12:51:14;;;;;;;3.03;2.08;;;25.40;59.70;;;;;;6053973;29;20036;-58
2023/06/12 12:54:16;;;;;;;3.30;1.80;;;25.10;59.60;;;;;;6059418;29;20045;-58
2023/06/12 12:57:18;;;;;;;2.67;1.90;;;24.80;60.40;;;;;;6077628;29;20040;-57
2023/06/12 13:00:19;;;;;;;4.30;2.45;;;25.20;59.80;;;;;;6069829;29;20055;-55
2023/06/12 13:03:22;;;;;;;3.75;2.47;;;25.10;59.80;;;;;;6097786;29;20040;-55
2023/06/12 13:06:24;;;;;;;2.45;1.90;;;25.10;59.70;;;;;;6123186;29;20041;-55
2023/06/12 13:09:25;;;;;;;3.67;2.58;;;25.30;60.30;;;;;;6084291;29;20036;-57
2023/06/12 13:12:27;;;;;;;2.55;2.13;;;25.20;60.10;;;;;;6103365;29;20032;-58
2023/06/12 13:15:28;;;;;;;2.65;1.90;;;25.20;60.20;;;;;;6073314;29;20051;-58
2023/06/12 13:18:30;;;;;;;3.15;1.90;;;25.40;60.40;;;;;;6091511;29;20044;-57
2023/06/12 13:21:32;;;;;;;3.25;1.80;;;24.80;60.20;;;;;;6083121;29;20539;-58
2023/06/12 13:24:34;;;;;;;2.10;1.90;;;25.00;60.10;;;;;;6083406;29;20162;-58
2023/06/12 13:27:35;;;;;;;3.08;2.00;;;25.20;60.70;;;;;;6089891;29;20076;-56
2023/06/12 13:30:39;;;;;;;4.80;1.80;;;25.40;60.80;;;;;;6086867;29;20051;-55
2023/06/12 13:33:41;;;;;;;2.55;1.60;;;25.30;61.10;;;;;;6086397;29;20044;-57
2023/06/12 13:36:46;;;;;;;3.83;2.00;;;25.20;60.50;;;;;;6098305;29;20074;-56
2023/06/12 13:39:48;;;;;;;2.38;1.80;;;25.10;68.00;;;;;;6106131;29;20055;-55
2023/06/12 13:58:17;;;;;;;3.05;1.60;;;25.40;57.70;;;;;;6253445;23;20048;-57
2023/06/12 14:04:42;;;;;;;3.25;1.67;;;25.20;57.70;;;;;;6426469;23;20044;-56
2023/06/12 14:07:43;;;;;;;2.47;2.05;;;25.30;59.50;;;;;;6114887;29;20047;-57
2023/06/12 14:10:45;;;;;;;2.47;2.03;;;25.20;59.50;;;;;;6097192;29;20060;-56
2023/06/12 14:13:49;;;;;;;2.72;1.88;;;25.40;59.50;;;;;;6084692;29;20043;-57
2023/06/12 14:16:51;;;;;;;4.63;1.90;;;25.40;59.60;;;;;;6111654;29;20047;-57
2023/06/12 14:19:52;;;;;;;2.53;1.58;;;25.40;59.50;;;;;;6130286;29;20044;-55
2023/06/12 14:22:54;;;;;;;2.28;1.92;;;25.30;59.60;;;;;;6115867;29;20071;-57
2023/06/12 14:25:55;;;;;;;2.70;1.88;;;25.30;59.50;;;;;;6116231;29;20036;-53
2023/06/12 14:28:57;;;;;;;2.28;1.70;;;25.40;59.60;;;;;;6852189;23;20070;-58
2023/06/12 14:31:59;;;;;;;3.25;2.00;;;25.30;59.40;;;;;;6068828;29;20043;-57
2023/06/12 14:35:01;;;;;;;2.50;2.00;;;25.10;59.50;;;;;;6078575;29;20052;-56
2023/06/12 14:38:03;;;;;;;2.58;2.03;;;25.60;59.80;;;;;;6083741;29;20048;-57
2023/06/12 14:41:04;;;;;;;3.30;1.92;;;25.40;59.70;;;;;;6089808;29;20052;-54
2023/06/12 14:44:06;;;;;;;4.95;2.00;;;25.40;59.40;;;;;;6067614;29;20097;-60
2023/06/12 14:47:12;;;;;;;2.67;1.80;;;25.50;59.00;;;;;;6075976;29;20051;-60
2023/06/12 14:50:13;;;;;;;3.75;1.98;;;25.60;57.90;;;;;;6073673;29;20055;-61
2023/06/12 14:53:15;;;;;;;2.60;2.08;;;25.40;58.80;;;;;;6066357;29;20785;-60
2023/06/12 14:56:17;;;;;;;3.15;1.90;;;25.70;58.80;;;;;;6073377;29;20044;-59
2023/06/12 14:59:19;;;;;;;2.67;1.80;;;25.30;58.60;;;;;;6075579;29;20043;-60
2023/06/12 15:02:21;;;;;;;2.00;1.80;;;25.60;58.70;;;;;;6060988;29;20036;-60
2023/06/12 15:05:22;;;;;;;2.45;1.85;;;25.70;59.00;;;;;;6035637;29;20808;-61
2023/06/12 15:08:24;;;;;;;1.90;1.52;;;25.70;59.10;;;;;;6037029;29;20043;-58
2023/06/12 15:11:25;;;;;;;2.40;1.75;;;25.60;58.90;;;;;;6056184;29;20127;-59
2023/06/12 15:14:28;;;;;;;2.00;1.73;;;25.60;58.50;;;;;;6073589;29;20055;-59
2023/06/12 15:17:29;;;;;;;3.10;1.73;;;25.60;58.50;;;;;;6091491;29;20040;-61
2023/06/12 15:20:31;;;;;;;2.33;1.60;;;25.60;58.40;;;;;;6093465;29;20078;-59
2023/06/12 15:23:32;;;;;;;2.85;1.48;;;25.70;58.50;;;;;;6096667;29;20180;-59
2023/06/12 15:26:35;;;;;;;2.80;1.73;;;25.60;58.30;;;;;;6074824;29;20063;-61
2023/06/12 15:29:37;;;;;;;1.98;1.75;;;25.50;58.30;;;;;;6075412;29;20083;-61
2023/06/12 15:32:41;;;;;;;2.95;1.92;;;25.70;58.40;;;;;;6076762;29;20043;-59
2023/06/12 15:35:44;;;;;;;2.80;1.75;;;25.90;58.30;;;;;;6086657;29;20051;-60
2023/06/12 15:38:47;;;;;;;2.50;1.80;;;25.60;58.00;;;;;;6102839;29;20655;-59
2023/06/12 15:41:48;;;;;;;2.22;1.75;;;25.90;58.20;;;;;;6056766;29;20045;-59
2023/06/12 15:44:51;;;;;;;3.03;1.50;;;25.80;58.20;;;;;;6073270;29;20123;-60
2023/06/12 15:47:54;;;;;;;4.82;1.70;;;25.80;58.30;;;;;;6073182;29;20051;-60
2023/06/12 15:50:56;;;;;;;1.88;1.60;;;25.80;57.90;;;;;;6069602;29;20091;-61
2023/06/12 15:53:58;;;;;;;2.05;1.30;;;26.20;59.20;;;;;;6037234;29;20113;-59
2023/06/12 15:57:00;;;;;;;3.10;1.30;;;25.50;57.90;;;;;;6040232;29;20111;-60
2023/06/12 16:00:03;;;;;;;1.30;1.15;;;25.90;57.90;;;;;;6066167;29;20043;-59
2023/06/12 16:03:09;;;;;;;3.45;1.00;;;26.00;58.00;;;;;;6073075;29;20265;-59
2023/06/12 16:06:11;;;;;;;1.52;1.00;;;25.90;58.00;;;;;;6040957;29;20043;-59
2023/06/12 16:09:14;;;;;;;1.08;0.65;;;25.80;58.00;;;;;;6082169;29;20729;-58
2023/06/12 16:12:15;;;;;;;1.20;0.90;;;26.00;58.10;;;;;;6079779;29;20766;-58
2023/06/12 16:15:17;;;;;;;1.40;1.05;;;25.80;58.00;;;;;;6091464;29;20100;-59
2023/06/12 16:18:19;;;;;;;2.35;1.10;;;25.90;57.90;;;;;;6075750;29;20036;-60
2023/06/12 16:21:21;;;;;;;0.82;0.70;;;25.90;58.00;;;;;;6082910;29;20251;-60